sensor_id;sensor_type;location;lat;lon;timestamp;temperature;humidity
7658;DHT22;8462;53.156;8.220;2023-03-31T00:01:28;14.50;82.30
7658;DHT22;8462;53.156;8.220;2023-03-31T00:03:58;14.50;82.40
7658;DHT22;8462;53.156;8.220;2023-03-31T00:06:30;14.50;82.40
7658;DHT22;8462;53.156;8.220;2023-03-31T00:08:57;14.50;82.30
7658;DHT22;8462;53.156;8.220;2023-03-31T00:11:27;14.50;82.40
7658;DHT22;8462;53.156;8.220;2023-03-31T00:13:54;14.60;82.40
7658;DHT22;8462;53.156;8.220;2023-03-31T00:16:22;14.60;82.60
7658;DHT22;8462;53.156;8.220;2023-03-31T00:18:50;14.60;82.40
7658;DHT22;8462;53.156;8.220;2023-03-31T00:21:19;14.50;82.50
7658;DHT22;8462;53.156;8.220;2023-03-31T00:23:55;14.50;82.80
7658;DHT22;8462;53.156;8.220;2023-03-31T00:26:23;14.60;82.60
7658;DHT22;8462;53.156;8.220;2023-03-31T00:28:51;14.50;82.30
7658;DHT22;8462;53.156;8.220;2023-03-31T00:31:19;14.50;82.50
7658;DHT22;8462;53.156;8.220;2023-03-31T00:33:48;14.40;82.60
7658;DHT22;8462;53.156;8.220;2023-03-31T00:36:15;14.50;82.80
7658;DHT22;8462;53.156;8.220;2023-03-31T00:38:46;14.40;82.70
7658;DHT22;8462;53.156;8.220;2023-03-31T00:41:13;14.40;83.00
7658;DHT22;8462;53.156;8.220;2023-03-31T00:46:26;14.40;83.20
7658;DHT22;8462;53.156;8.220;2023-03-31T00:48:57;14.40;83.30
7658;DHT22;8462;53.156;8.220;2023-03-31T00:51:25;14.50;83.10
7658;DHT22;8462;53.156;8.220;2023-03-31T00:53:58;14.50;83.10
7658;DHT22;8462;53.156;8.220;2023-03-31T00:56:29;14.50;83.20
7658;DHT22;8462;53.156;8.220;2023-03-31T00:59:01;14.60;83.10
7658;DHT22;8462;53.156;8.220;2023-03-31T01:01:29;14.50;83.10
7658;DHT22;8462;53.156;8.220;2023-03-31T01:03:58;14.50;83.20
7658;DHT22;8462;53.156;8.220;2023-03-31T01:06:25;14.50;83.10
7658;DHT22;8462;53.156;8.220;2023-03-31T01:08:55;14.50;83.20
7658;DHT22;8462;53.156;8.220;2023-03-31T01:11:24;14.50;83.20
7658;DHT22;8462;53.156;8.220;2023-03-31T01:13:54;14.50;83.50
7658;DHT22;8462;53.156;8.220;2023-03-31T01:16:22;14.50;83.60
7658;DHT22;8462;53.156;8.220;2023-03-31T01:18:49;14.50;83.70
7658;DHT22;8462;53.156;8.220;2023-03-31T01:21:39;14.50;83.80
7658;DHT22;8462;53.156;8.220;2023-03-31T01:24:36;14.40;83.70
7658;DHT22;8462;53.156;8.220;2023-03-31T01:27:42;14.40;84.00
7658;DHT22;8462;53.156;8.220;2023-03-31T01:34:05;14.40;83.90
7658;DHT22;8462;53.156;8.220;2023-03-31T01:40:11;14.40;83.60
7658;DHT22;8462;53.156;8.220;2023-03-31T01:42:43;14.40;83.60
7658;DHT22;8462;53.156;8.220;2023-03-31T01:45:22;14.40;83.60
7658;DHT22;8462;53.156;8.220;2023-03-31T01:47:55;14.40;83.70
7658;DHT22;8462;53.156;8.220;2023-03-31T01:50:26;14.40;83.80
7658;DHT22;8462;53.156;8.220;2023-03-31T01:52:58;14.40;83.70
7658;DHT22;8462;53.156;8.220;2023-03-31T01:55:34;14.40;83.50
7658;DHT22;8462;53.156;8.220;2023-03-31T01:58:05;14.30;83.50
7658;DHT22;8462;53.156;8.220;2023-03-31T02:00:37;14.30;83.70
7658;DHT22;8462;53.156;8.220;2023-03-31T02:03:11;14.30;83.90
7658;DHT22;8462;53.156;8.220;2023-03-31T02:05:46;14.20;84.10
7658;DHT22;8462;53.156;8.220;2023-03-31T02:08:16;14.10;84.40
7658;DHT22;8462;53.156;8.220;2023-03-31T02:10:48;14.10;84.70
7658;DHT22;8462;53.156;8.220;2023-03-31T02:13:17;14.00;85.00
7658;DHT22;8462;53.156;8.220;2023-03-31T02:15:49;14.00;85.90
7658;DHT22;8462;53.156;8.220;2023-03-31T02:18:19;14.10;86.00
7658;DHT22;8462;53.156;8.220;2023-03-31T02:20:48;14.10;86.10
7658;DHT22;8462;53.156;8.220;2023-03-31T02:23:20;14.10;86.20
7658;DHT22;8462;53.156;8.220;2023-03-31T02:25:54;14.10;86.10
7658;DHT22;8462;53.156;8.220;2023-03-31T02:28:26;14.20;86.40
7658;DHT22;8462;53.156;8.220;2023-03-31T02:31:03;14.20;86.30
7658;DHT22;8462;53.156;8.220;2023-03-31T02:33:32;14.20;86.50
7658;DHT22;8462;53.156;8.220;2023-03-31T02:35:59;14.20;86.50
7658;DHT22;8462;53.156;8.220;2023-03-31T02:38:27;14.20;86.50
7658;DHT22;8462;53.156;8.220;2023-03-31T02:40:57;14.20;86.80
7658;DHT22;8462;53.156;8.220;2023-03-31T02:43:24;14.20;86.90
7658;DHT22;8462;53.156;8.220;2023-03-31T02:45:53;14.20;86.50
7658;DHT22;8462;53.156;8.220;2023-03-31T02:48:23;14.20;86.50
7658;DHT22;8462;53.156;8.220;2023-03-31T02:51:05;14.20;86.70
7658;DHT22;8462;53.156;8.220;2023-03-31T02:53:47;14.20;86.80
7658;DHT22;8462;53.156;8.220;2023-03-31T02:56:41;14.10;87.20
7658;DHT22;8462;53.156;8.220;2023-03-31T02:59:27;14.10;87.40
7658;DHT22;8462;53.156;8.220;2023-03-31T03:02:10;14.10;87.30
7658;DHT22;8462;53.156;8.220;2023-03-31T03:04:57;14.10;87.30
7658;DHT22;8462;53.156;8.220;2023-03-31T03:07:33;14.10;87.40
7658;DHT22;8462;53.156;8.220;2023-03-31T03:10:05;14.10;87.40
7658;DHT22;8462;53.156;8.220;2023-03-31T03:12:41;14.10;87.40
7658;DHT22;8462;53.156;8.220;2023-03-31T03:15:15;14.10;88.30
7658;DHT22;8462;53.156;8.220;2023-03-31T03:17:46;14.10;87.30
7658;DHT22;8462;53.156;8.220;2023-03-31T03:20:18;14.10;87.40
7658;DHT22;8462;53.156;8.220;2023-03-31T03:22:46;14.10;87.00
7658;DHT22;8462;53.156;8.220;2023-03-31T03:25:14;14.00;86.90
7658;DHT22;8462;53.156;8.220;2023-03-31T03:27:44;14.00;87.00
7658;DHT22;8462;53.156;8.220;2023-03-31T03:30:12;14.00;87.10
7658;DHT22;8462;53.156;8.220;2023-03-31T03:32:39;14.00;86.90
7658;DHT22;8462;53.156;8.220;2023-03-31T03:35:08;14.00;86.80
7658;DHT22;8462;53.156;8.220;2023-03-31T03:37:35;13.90;86.80
7658;DHT22;8462;53.156;8.220;2023-03-31T03:40:03;13.90;87.00
7658;DHT22;8462;53.156;8.220;2023-03-31T03:42:31;13.80;87.30
7658;DHT22;8462;53.156;8.220;2023-03-31T03:44:59;13.80;87.20
7658;DHT22;8462;53.156;8.220;2023-03-31T03:47:26;13.80;87.10
7658;DHT22;8462;53.156;8.220;2023-03-31T03:49:53;13.80;87.10
7658;DHT22;8462;53.156;8.220;2023-03-31T03:52:21;13.80;87.00
7658;DHT22;8462;53.156;8.220;2023-03-31T03:54:47;13.80;87.10
7658;DHT22;8462;53.156;8.220;2023-03-31T03:57:14;13.70;87.20
7658;DHT22;8462;53.156;8.220;2023-03-31T03:59:41;13.70;87.60
7658;DHT22;8462;53.156;8.220;2023-03-31T04:02:09;13.60;87.70
7658;DHT22;8462;53.156;8.220;2023-03-31T04:04:36;13.60;87.80
7658;DHT22;8462;53.156;8.220;2023-03-31T04:07:03;13.60;87.80
7658;DHT22;8462;53.156;8.220;2023-03-31T04:09:30;13.50;87.80
7658;DHT22;8462;53.156;8.220;2023-03-31T04:11:57;13.50;88.10
7658;DHT22;8462;53.156;8.220;2023-03-31T04:14:24;13.50;88.20
7658;DHT22;8462;53.156;8.220;2023-03-31T04:16:51;13.40;89.40
7658;DHT22;8462;53.156;8.220;2023-03-31T04:19:22;13.40;88.70
7658;DHT22;8462;53.156;8.220;2023-03-31T04:21:50;13.40;89.00
7658;DHT22;8462;53.156;8.220;2023-03-31T04:24:27;13.40;88.80
7658;DHT22;8462;53.156;8.220;2023-03-31T04:26:58;13.30;89.00
7658;DHT22;8462;53.156;8.220;2023-03-31T04:29:25;13.30;89.00
7658;DHT22;8462;53.156;8.220;2023-03-31T04:31:52;13.40;89.10
7658;DHT22;8462;53.156;8.220;2023-03-31T04:34:25;13.30;88.90
7658;DHT22;8462;53.156;8.220;2023-03-31T04:36:59;13.30;88.80
7658;DHT22;8462;53.156;8.220;2023-03-31T04:39:27;13.30;89.10
7658;DHT22;8462;53.156;8.220;2023-03-31T04:41:56;13.20;89.40
7658;DHT22;8462;53.156;8.220;2023-03-31T04:44:23;13.10;89.80
7658;DHT22;8462;53.156;8.220;2023-03-31T04:46:50;13.10;90.00
7658;DHT22;8462;53.156;8.220;2023-03-31T04:49:17;13.10;90.10
7658;DHT22;8462;53.156;8.220;2023-03-31T04:51:45;13.10;90.20
7658;DHT22;8462;53.156;8.220;2023-03-31T04:54:12;13.10;90.30
7658;DHT22;8462;53.156;8.220;2023-03-31T04:56:39;13.10;90.40
7658;DHT22;8462;53.156;8.220;2023-03-31T04:59:06;13.10;90.30
7658;DHT22;8462;53.156;8.220;2023-03-31T05:01:33;13.20;90.20
7658;DHT22;8462;53.156;8.220;2023-03-31T05:04:00;13.20;90.20
7658;DHT22;8462;53.156;8.220;2023-03-31T05:06:27;13.20;90.10
7658;DHT22;8462;53.156;8.220;2023-03-31T05:08:56;13.20;90.10
7658;DHT22;8462;53.156;8.220;2023-03-31T05:11:22;13.30;90.20
7658;DHT22;8462;53.156;8.220;2023-03-31T05:13:49;13.30;90.10
7658;DHT22;8462;53.156;8.220;2023-03-31T05:16:16;13.30;90.00
7658;DHT22;8462;53.156;8.220;2023-03-31T05:18:43;13.30;90.10
7658;DHT22;8462;53.156;8.220;2023-03-31T05:21:11;13.40;90.10
7658;DHT22;8462;53.156;8.220;2023-03-31T05:23:39;13.40;89.80
7658;DHT22;8462;53.156;8.220;2023-03-31T05:26:07;13.40;89.90
7658;DHT22;8462;53.156;8.220;2023-03-31T05:28:35;13.40;89.70
7658;DHT22;8462;53.156;8.220;2023-03-31T05:31:03;13.40;90.10
7658;DHT22;8462;53.156;8.220;2023-03-31T05:33:30;13.30;90.20
7658;DHT22;8462;53.156;8.220;2023-03-31T05:35:58;13.30;90.40
7658;DHT22;8462;53.156;8.220;2023-03-31T05:38:26;13.30;90.60
7658;DHT22;8462;53.156;8.220;2023-03-31T05:40:56;13.30;90.70
7658;DHT22;8462;53.156;8.220;2023-03-31T05:43:24;13.30;90.90
7658;DHT22;8462;53.156;8.220;2023-03-31T05:45:51;13.30;91.00
7658;DHT22;8462;53.156;8.220;2023-03-31T05:48:18;13.30;91.10
7658;DHT22;8462;53.156;8.220;2023-03-31T05:50:46;13.30;91.50
7658;DHT22;8462;53.156;8.220;2023-03-31T05:53:13;13.30;91.40
7658;DHT22;8462;53.156;8.220;2023-03-31T05:55:40;13.30;91.80
7658;DHT22;8462;53.156;8.220;2023-03-31T05:58:07;13.30;91.90
7658;DHT22;8462;53.156;8.220;2023-03-31T06:00:35;13.30;92.10
7658;DHT22;8462;53.156;8.220;2023-03-31T06:03:02;13.20;92.30
7658;DHT22;8462;53.156;8.220;2023-03-31T06:05:33;13.20;92.40
7658;DHT22;8462;53.156;8.220;2023-03-31T06:08:00;13.20;92.50
7658;DHT22;8462;53.156;8.220;2023-03-31T06:10:27;13.30;92.60
7658;DHT22;8462;53.156;8.220;2023-03-31T06:12:54;13.30;92.80
7658;DHT22;8462;53.156;8.220;2023-03-31T06:15:20;13.30;92.80
7658;DHT22;8462;53.156;8.220;2023-03-31T06:17:49;13.30;92.80
7658;DHT22;8462;53.156;8.220;2023-03-31T06:20:16;13.30;92.90
7658;DHT22;8462;53.156;8.220;2023-03-31T06:22:42;13.30;93.00
7658;DHT22;8462;53.156;8.220;2023-03-31T06:25:09;13.30;93.10
7658;DHT22;8462;53.156;8.220;2023-03-31T06:27:36;13.40;93.00
7658;DHT22;8462;53.156;8.220;2023-03-31T06:30:04;13.40;92.90
7658;DHT22;8462;53.156;8.220;2023-03-31T06:32:30;13.40;93.00
7658;DHT22;8462;53.156;8.220;2023-03-31T06:34:59;13.40;92.90
7658;DHT22;8462;53.156;8.220;2023-03-31T06:37:26;13.50;93.20
7658;DHT22;8462;53.156;8.220;2023-03-31T06:39:52;13.50;92.80
7658;DHT22;8462;53.156;8.220;2023-03-31T06:42:19;13.50;92.90
7658;DHT22;8462;53.156;8.220;2023-03-31T06:44:46;13.50;92.90
7658;DHT22;8462;53.156;8.220;2023-03-31T06:47:13;13.60;93.30
7658;DHT22;8462;53.156;8.220;2023-03-31T06:49:40;13.60;93.10
7658;DHT22;8462;53.156;8.220;2023-03-31T06:52:08;13.70;92.90
7658;DHT22;8462;53.156;8.220;2023-03-31T06:54:35;13.70;92.80
7658;DHT22;8462;53.156;8.220;2023-03-31T06:57:02;13.80;92.50
7658;DHT22;8462;53.156;8.220;2023-03-31T06:59:29;13.80;92.30
7658;DHT22;8462;53.156;8.220;2023-03-31T07:01:56;13.90;92.30
7658;DHT22;8462;53.156;8.220;2023-03-31T07:04:23;13.90;92.50
7658;DHT22;8462;53.156;8.220;2023-03-31T07:06:50;13.80;92.40
7658;DHT22;8462;53.156;8.220;2023-03-31T07:09:18;13.90;92.30
7658;DHT22;8462;53.156;8.220;2023-03-31T07:11:46;13.90;92.20
7658;DHT22;8462;53.156;8.220;2023-03-31T07:14:13;13.90;92.30
7658;DHT22;8462;53.156;8.220;2023-03-31T07:16:40;13.90;92.30
7658;DHT22;8462;53.156;8.220;2023-03-31T07:19:07;13.90;92.70
7658;DHT22;8462;53.156;8.220;2023-03-31T07:21:35;13.90;92.40
7658;DHT22;8462;53.156;8.220;2023-03-31T07:24:03;14.00;92.50
7658;DHT22;8462;53.156;8.220;2023-03-31T07:26:32;14.20;92.50
7658;DHT22;8462;53.156;8.220;2023-03-31T07:28:59;14.20;91.70
7658;DHT22;8462;53.156;8.220;2023-03-31T07:31:26;14.20;91.70
7658;DHT22;8462;53.156;8.220;2023-03-31T07:33:53;14.30;92.00
7658;DHT22;8462;53.156;8.220;2023-03-31T07:36:20;14.40;91.40
7658;DHT22;8462;53.156;8.220;2023-03-31T07:38:47;14.50;91.40
7658;DHT22;8462;53.156;8.220;2023-03-31T07:41:17;14.50;91.20
7658;DHT22;8462;53.156;8.220;2023-03-31T07:43:47;14.50;91.40
7658;DHT22;8462;53.156;8.220;2023-03-31T07:46:16;14.50;91.50
7658;DHT22;8462;53.156;8.220;2023-03-31T07:48:44;14.50;91.50
7658;DHT22;8462;53.156;8.220;2023-03-31T07:51:12;14.50;91.60
7658;DHT22;8462;53.156;8.220;2023-03-31T07:53:39;14.50;91.70
7658;DHT22;8462;53.156;8.220;2023-03-31T07:56:06;14.60;91.30
7658;DHT22;8462;53.156;8.220;2023-03-31T07:58:34;14.60;91.10
7658;DHT22;8462;53.156;8.220;2023-03-31T08:01:04;14.60;91.20
7658;DHT22;8462;53.156;8.220;2023-03-31T08:03:32;14.60;91.30
7658;DHT22;8462;53.156;8.220;2023-03-31T08:06:00;14.70;91.40
7658;DHT22;8462;53.156;8.220;2023-03-31T08:08:27;14.70;90.90
7658;DHT22;8462;53.156;8.220;2023-03-31T08:10:54;14.70;91.10
7658;DHT22;8462;53.156;8.220;2023-03-31T08:13:21;14.80;90.90
7658;DHT22;8462;53.156;8.220;2023-03-31T08:15:51;14.80;90.60
7658;DHT22;8462;53.156;8.220;2023-03-31T08:18:19;14.80;90.80
7658;DHT22;8462;53.156;8.220;2023-03-31T08:20:46;14.80;91.00
7658;DHT22;8462;53.156;8.220;2023-03-31T08:23:15;14.90;90.90
7658;DHT22;8462;53.156;8.220;2023-03-31T08:25:42;15.00;90.50
7658;DHT22;8462;53.156;8.220;2023-03-31T08:28:10;15.00;90.20
7658;DHT22;8462;53.156;8.220;2023-03-31T08:30:39;14.90;90.40
7658;DHT22;8462;53.156;8.220;2023-03-31T08:33:06;15.00;90.40
7658;DHT22;8462;53.156;8.220;2023-03-31T08:35:34;15.00;90.40
7658;DHT22;8462;53.156;8.220;2023-03-31T08:38:01;15.00;90.40
7658;DHT22;8462;53.156;8.220;2023-03-31T08:40:29;14.90;90.00
7658;DHT22;8462;53.156;8.220;2023-03-31T08:43:01;14.80;90.30
7658;DHT22;8462;53.156;8.220;2023-03-31T08:45:33;14.70;90.70
7658;DHT22;8462;53.156;8.220;2023-03-31T08:48:04;14.80;91.00
7658;DHT22;8462;53.156;8.220;2023-03-31T08:50:34;14.80;91.00
7658;DHT22;8462;53.156;8.220;2023-03-31T08:53:05;14.80;91.10
7658;DHT22;8462;53.156;8.220;2023-03-31T08:55:39;14.80;90.90
7658;DHT22;8462;53.156;8.220;2023-03-31T08:58:20;14.80;90.50
7658;DHT22;8462;53.156;8.220;2023-03-31T09:00:55;14.70;90.70
7658;DHT22;8462;53.156;8.220;2023-03-31T09:03:32;14.60;91.00
7658;DHT22;8462;53.156;8.220;2023-03-31T09:06:04;14.50;91.30
7658;DHT22;8462;53.156;8.220;2023-03-31T09:08:36;14.50;91.60
7658;DHT22;8462;53.156;8.220;2023-03-31T09:11:08;14.50;91.50
7658;DHT22;8462;53.156;8.220;2023-03-31T09:16:41;14.40;91.90
7658;DHT22;8462;53.156;8.220;2023-03-31T09:19:14;14.30;92.10
7658;DHT22;8462;53.156;8.220;2023-03-31T09:21:45;14.30;92.10
7658;DHT22;8462;53.156;8.220;2023-03-31T09:24:16;14.40;92.30
7658;DHT22;8462;53.156;8.220;2023-03-31T09:26:47;14.40;92.40
7658;DHT22;8462;53.156;8.220;2023-03-31T09:29:20;14.40;91.90
7658;DHT22;8462;53.156;8.220;2023-03-31T09:31:49;14.50;91.80
7658;DHT22;8462;53.156;8.220;2023-03-31T09:34:22;14.60;91.40
7658;DHT22;8462;53.156;8.220;2023-03-31T09:36:52;14.50;91.50
7658;DHT22;8462;53.156;8.220;2023-03-31T09:39:19;14.60;92.40
7658;DHT22;8462;53.156;8.220;2023-03-31T09:41:48;14.60;91.70
7658;DHT22;8462;53.156;8.220;2023-03-31T09:44:22;14.60;91.60
7658;DHT22;8462;53.156;8.220;2023-03-31T09:46:50;14.80;91.80
7658;DHT22;8462;53.156;8.220;2023-03-31T09:49:20;14.90;91.50
7658;DHT22;8462;53.156;8.220;2023-03-31T09:51:55;15.00;91.50
7658;DHT22;8462;53.156;8.220;2023-03-31T09:54:26;15.10;91.00
7658;DHT22;8462;53.156;8.220;2023-03-31T09:56:55;15.30;91.30
7658;DHT22;8462;53.156;8.220;2023-03-31T09:59:29;15.60;90.60
7658;DHT22;8462;53.156;8.220;2023-03-31T10:01:58;15.70;90.40
7658;DHT22;8462;53.156;8.220;2023-03-31T10:04:28;15.80;89.70
7658;DHT22;8462;53.156;8.220;2023-03-31T10:06:58;15.80;88.30
7658;DHT22;8462;53.156;8.220;2023-03-31T10:09:26;15.70;88.10
7658;DHT22;8462;53.156;8.220;2023-03-31T10:11:56;15.80;89.30
7658;DHT22;8462;53.156;8.220;2023-03-31T10:14:26;15.80;89.40
7658;DHT22;8462;53.156;8.220;2023-03-31T10:17:02;16.00;88.10
7658;DHT22;8462;53.156;8.220;2023-03-31T10:19:32;16.20;88.60
7658;DHT22;8462;53.156;8.220;2023-03-31T10:22:02;16.20;85.60
7658;DHT22;8462;53.156;8.220;2023-03-31T10:24:37;16.30;87.20
7658;DHT22;8462;53.156;8.220;2023-03-31T10:27:06;16.50;87.00
7658;DHT22;8462;53.156;8.220;2023-03-31T10:29:39;16.60;85.90
7658;DHT22;8462;53.156;8.220;2023-03-31T10:32:11;16.50;85.30
7658;DHT22;8462;53.156;8.220;2023-03-31T10:34:43;16.50;85.50
7658;DHT22;8462;53.156;8.220;2023-03-31T10:37:13;16.30;86.00
7658;DHT22;8462;53.156;8.220;2023-03-31T10:39:42;16.20;85.50
7658;DHT22;8462;53.156;8.220;2023-03-31T10:42:10;16.10;85.70
7658;DHT22;8462;53.156;8.220;2023-03-31T10:44:44;15.90;86.30
7658;DHT22;8462;53.156;8.220;2023-03-31T10:47:20;15.80;86.80
7658;DHT22;8462;53.156;8.220;2023-03-31T10:49:49;15.60;87.50
7658;DHT22;8462;53.156;8.220;2023-03-31T10:52:21;15.50;88.20
7658;DHT22;8462;53.156;8.220;2023-03-31T10:54:50;15.50;88.60
7658;DHT22;8462;53.156;8.220;2023-03-31T10:57:23;15.50;88.10
7658;DHT22;8462;53.156;8.220;2023-03-31T11:00:14;15.50;88.40
7658;DHT22;8462;53.156;8.220;2023-03-31T11:03:00;15.50;88.80
7658;DHT22;8462;53.156;8.220;2023-03-31T11:05:32;15.60;89.30
7658;DHT22;8462;53.156;8.220;2023-03-31T11:08:18;15.70;89.30
7658;DHT22;8462;53.156;8.220;2023-03-31T11:10:56;15.90;88.60
7658;DHT22;8462;53.156;8.220;2023-03-31T11:13:32;16.00;87.60
7658;DHT22;8462;53.156;8.220;2023-03-31T11:16:07;16.20;86.30
7658;DHT22;8462;53.156;8.220;2023-03-31T11:18:59;16.40;86.20
7658;DHT22;8462;53.156;8.220;2023-03-31T11:21:36;16.40;85.70
7658;DHT22;8462;53.156;8.220;2023-03-31T11:24:18;16.50;85.10
7658;DHT22;8462;53.156;8.220;2023-03-31T11:26:54;16.50;84.80
7658;DHT22;8462;53.156;8.220;2023-03-31T11:29:31;16.50;84.90
7658;DHT22;8462;53.156;8.220;2023-03-31T11:32:21;16.50;85.20
7658;DHT22;8462;53.156;8.220;2023-03-31T11:35:00;16.30;85.50
7658;DHT22;8462;53.156;8.220;2023-03-31T11:37:53;16.30;86.30
7658;DHT22;8462;53.156;8.220;2023-03-31T11:40:42;16.30;85.90
7658;DHT22;8462;53.156;8.220;2023-03-31T11:43:20;16.20;85.40
7658;DHT22;8462;53.156;8.220;2023-03-31T11:45:52;16.20;85.70
7658;DHT22;8462;53.156;8.220;2023-03-31T11:48:26;16.20;85.60
7658;DHT22;8462;53.156;8.220;2023-03-31T11:50:57;16.10;86.40
7658;DHT22;8462;53.156;8.220;2023-03-31T11:53:30;16.10;86.60
7658;DHT22;8462;53.156;8.220;2023-03-31T11:56:01;16.00;87.40
7658;DHT22;8462;53.156;8.220;2023-03-31T11:58:34;15.90;87.60
7658;DHT22;8462;53.156;8.220;2023-03-31T12:01:08;16.10;89.00
7658;DHT22;8462;53.156;8.220;2023-03-31T12:03:42;16.30;88.80
7658;DHT22;8462;53.156;8.220;2023-03-31T12:06:16;16.60;88.20
7658;DHT22;8462;53.156;8.220;2023-03-31T12:08:50;16.90;87.00
7658;DHT22;8462;53.156;8.220;2023-03-31T12:11:26;17.20;85.50
7658;DHT22;8462;53.156;8.220;2023-03-31T12:13:59;17.40;84.40
7658;DHT22;8462;53.156;8.220;2023-03-31T12:16:37;17.50;83.80
7658;DHT22;8462;53.156;8.220;2023-03-31T12:19:08;17.50;82.60
7658;DHT22;8462;53.156;8.220;2023-03-31T12:21:39;17.20;83.00
7658;DHT22;8462;53.156;8.220;2023-03-31T12:24:11;16.80;84.50
7658;DHT22;8462;53.156;8.220;2023-03-31T12:26:45;16.40;85.00
7658;DHT22;8462;53.156;8.220;2023-03-31T12:29:22;16.20;86.20
7658;DHT22;8462;53.156;8.220;2023-03-31T12:31:53;16.20;86.80
7658;DHT22;8462;53.156;8.220;2023-03-31T12:34:23;16.20;86.10
7658;DHT22;8462;53.156;8.220;2023-03-31T12:37:05;16.10;87.00
7658;DHT22;8462;53.156;8.220;2023-03-31T12:39:43;16.20;88.10
7658;DHT22;8462;53.156;8.220;2023-03-31T12:42:46;16.40;88.10
7658;DHT22;8462;53.156;8.220;2023-03-31T12:45:24;16.70;87.10
7658;DHT22;8462;53.156;8.220;2023-03-31T12:48:10;16.80;85.50
7658;DHT22;8462;53.156;8.220;2023-03-31T12:50:49;16.80;85.00
7658;DHT22;8462;53.156;8.220;2023-03-31T12:53:26;16.80;84.50
7658;DHT22;8462;53.156;8.220;2023-03-31T12:55:58;16.80;84.00
7658;DHT22;8462;53.156;8.220;2023-03-31T12:58:43;16.90;84.90
7658;DHT22;8462;53.156;8.220;2023-03-31T13:01:12;17.00;83.80
7658;DHT22;8462;53.156;8.220;2023-03-31T13:03:49;17.00;82.40
7658;DHT22;8462;53.156;8.220;2023-03-31T13:06:49;17.10;83.30
7658;DHT22;8462;53.156;8.220;2023-03-31T13:09:42;17.10;83.10
7658;DHT22;8462;53.156;8.220;2023-03-31T13:12:14;17.20;83.00
7658;DHT22;8462;53.156;8.220;2023-03-31T13:14:44;17.20;81.70
7658;DHT22;8462;53.156;8.220;2023-03-31T13:17:19;17.30;81.90
7658;DHT22;8462;53.156;8.220;2023-03-31T13:19:47;17.30;81.70
7658;DHT22;8462;53.156;8.220;2023-03-31T13:22:29;17.40;82.50
7658;DHT22;8462;53.156;8.220;2023-03-31T13:25:31;17.50;82.60
7658;DHT22;8462;53.156;8.220;2023-03-31T13:28:08;17.50;81.90
7658;DHT22;8462;53.156;8.220;2023-03-31T13:30:48;17.40;80.90
7658;DHT22;8462;53.156;8.220;2023-03-31T13:33:20;17.40;81.20
7658;DHT22;8462;53.156;8.220;2023-03-31T13:35:51;17.40;81.70
7658;DHT22;8462;53.156;8.220;2023-03-31T13:38:29;17.60;81.60
7658;DHT22;8462;53.156;8.220;2023-03-31T13:41:23;17.80;80.10
7658;DHT22;8462;53.156;8.220;2023-03-31T13:47:27;18.40;80.90
7658;DHT22;8462;53.156;8.220;2023-03-31T13:50:16;18.60;78.50
7658;DHT22;8462;53.156;8.220;2023-03-31T13:52:53;18.60;77.60
7658;DHT22;8462;53.156;8.220;2023-03-31T13:56:00;18.40;77.70
7658;DHT22;8462;53.156;8.220;2023-03-31T13:58:38;18.20;78.00
7658;DHT22;8462;53.156;8.220;2023-03-31T14:01:45;18.10;78.50
7658;DHT22;8462;53.156;8.220;2023-03-31T14:04:37;18.10;79.00
7658;DHT22;8462;53.156;8.220;2023-03-31T14:07:08;18.00;79.30
7658;DHT22;8462;53.156;8.220;2023-03-31T14:09:38;18.00;79.00
7658;DHT22;8462;53.156;8.220;2023-03-31T14:12:19;18.10;78.70
7658;DHT22;8462;53.156;8.220;2023-03-31T14:14:46;18.30;78.40
7658;DHT22;8462;53.156;8.220;2023-03-31T14:17:13;18.40;78.20
7658;DHT22;8462;53.156;8.220;2023-03-31T14:19:57;18.60;76.90
7658;DHT22;8462;53.156;8.220;2023-03-31T14:22:35;18.80;76.00
7658;DHT22;8462;53.156;8.220;2023-03-31T14:25:12;18.80;74.80
7658;DHT22;8462;53.156;8.220;2023-03-31T14:27:53;18.80;74.40
7658;DHT22;8462;53.156;8.220;2023-03-31T14:30:33;18.80;74.80
7658;DHT22;8462;53.156;8.220;2023-03-31T14:33:16;18.90;74.70
7658;DHT22;8462;53.156;8.220;2023-03-31T14:35:53;18.90;75.70
7658;DHT22;8462;53.156;8.220;2023-03-31T14:38:22;19.10;75.70
7658;DHT22;8462;53.156;8.220;2023-03-31T14:40:52;19.20;74.50
7658;DHT22;8462;53.156;8.220;2023-03-31T14:43:22;19.10;74.50
7658;DHT22;8462;53.156;8.220;2023-03-31T14:45:58;19.10;74.40
7658;DHT22;8462;53.156;8.220;2023-03-31T14:48:26;18.90;74.20
7658;DHT22;8462;53.156;8.220;2023-03-31T14:50:59;18.80;74.90
7658;DHT22;8462;53.156;8.220;2023-03-31T14:53:26;18.70;75.50
7658;DHT22;8462;53.156;8.220;2023-03-31T14:55:59;18.50;76.10
7658;DHT22;8462;53.156;8.220;2023-03-31T14:58:29;18.30;76.20
7658;DHT22;8462;53.156;8.220;2023-03-31T15:01:00;18.00;77.20
7658;DHT22;8462;53.156;8.220;2023-03-31T15:03:28;17.90;78.20
7658;DHT22;8462;53.156;8.220;2023-03-31T15:05:58;17.80;78.30
7658;DHT22;8462;53.156;8.220;2023-03-31T15:08:26;17.70;79.20
7658;DHT22;8462;53.156;8.220;2023-03-31T15:10:56;17.60;79.70
7658;DHT22;8462;53.156;8.220;2023-03-31T15:13:32;17.50;79.20
7658;DHT22;8462;53.156;8.220;2023-03-31T15:15:59;17.50;80.40
7658;DHT22;8462;53.156;8.220;2023-03-31T15:18:44;17.40;80.80
7658;DHT22;8462;53.156;8.220;2023-03-31T15:21:19;17.20;81.30
7658;DHT22;8462;53.156;8.220;2023-03-31T15:23:50;17.20;81.90
7658;DHT22;8462;53.156;8.220;2023-03-31T15:26:19;17.10;81.80
7658;DHT22;8462;53.156;8.220;2023-03-31T15:28:53;16.80;82.30
7658;DHT22;8462;53.156;8.220;2023-03-31T15:31:20;16.70;82.80
7658;DHT22;8462;53.156;8.220;2023-03-31T15:33:49;16.60;83.90
7658;DHT22;8462;53.156;8.220;2023-03-31T15:36:19;16.50;83.30
7658;DHT22;8462;53.156;8.220;2023-03-31T15:38:54;16.40;84.30
7658;DHT22;8462;53.156;8.220;2023-03-31T15:41:21;16.30;83.90
7658;DHT22;8462;53.156;8.220;2023-03-31T15:44:03;16.20;84.30
7658;DHT22;8462;53.156;8.220;2023-03-31T15:46:48;16.20;84.70
7658;DHT22;8462;53.156;8.220;2023-03-31T15:49:19;16.20;84.90
7658;DHT22;8462;53.156;8.220;2023-03-31T15:51:49;16.20;85.20
7658;DHT22;8462;53.156;8.220;2023-03-31T15:54:38;16.20;85.00
7658;DHT22;8462;53.156;8.220;2023-03-31T15:57:07;16.20;85.00
7658;DHT22;8462;53.156;8.220;2023-03-31T15:59:43;16.20;85.60
7658;DHT22;8462;53.156;8.220;2023-03-31T16:02:15;16.20;85.30
7658;DHT22;8462;53.156;8.220;2023-03-31T16:04:47;16.20;85.60
7658;DHT22;8462;53.156;8.220;2023-03-31T16:07:17;16.20;85.30
7658;DHT22;8462;53.156;8.220;2023-03-31T16:09:48;16.20;84.70
7658;DHT22;8462;53.156;8.220;2023-03-31T16:12:20;16.10;84.90
7658;DHT22;8462;53.156;8.220;2023-03-31T16:14:51;16.20;84.60
7658;DHT22;8462;53.156;8.220;2023-03-31T16:17:27;16.10;85.40
7658;DHT22;8462;53.156;8.220;2023-03-31T16:19:59;16.10;85.50
7658;DHT22;8462;53.156;8.220;2023-03-31T16:22:35;16.20;85.60
7658;DHT22;8462;53.156;8.220;2023-03-31T16:25:09;16.10;85.50
7658;DHT22;8462;53.156;8.220;2023-03-31T16:27:40;16.10;85.70
7658;DHT22;8462;53.156;8.220;2023-03-31T16:30:10;16.10;85.80
7658;DHT22;8462;53.156;8.220;2023-03-31T16:32:38;16.10;86.00
7658;DHT22;8462;53.156;8.220;2023-03-31T16:35:05;16.00;85.50
7658;DHT22;8462;53.156;8.220;2023-03-31T16:37:33;15.90;85.70
7658;DHT22;8462;53.156;8.220;2023-03-31T16:40:01;15.80;86.30
7658;DHT22;8462;53.156;8.220;2023-03-31T16:42:29;15.80;86.60
7658;DHT22;8462;53.156;8.220;2023-03-31T16:44:56;15.80;86.50
7658;DHT22;8462;53.156;8.220;2023-03-31T16:47:23;15.70;87.10
7658;DHT22;8462;53.156;8.220;2023-03-31T16:49:50;15.70;87.40